createdAt,value
2018-09-04T00:00:35.896Z,20.41
2018-09-04T00:03:03.959Z,20.41
2018-09-04T00:05:31.996Z,20.42
2018-09-04T00:08:00.054Z,20.42
2018-09-04T00:10:28.124Z,20.41
2018-09-04T00:12:56.190Z,20.41
2018-09-04T00:15:24.336Z,20.40
2018-09-04T00:17:52.567Z,20.41
2018-09-04T00:20:20.639Z,20.40
2018-09-04T00:22:48.737Z,20.39
2018-09-04T00:25:16.792Z,20.37
2018-09-04T00:27:44.881Z,20.35
2018-09-04T00:30:12.945Z,20.35
2018-09-04T00:32:41.022Z,20.34
2018-09-04T00:35:09.071Z,20.33
2018-09-04T00:37:37.152Z,20.32
2018-09-04T00:40:05.989Z,20.29
2018-09-04T00:42:34.300Z,20.27
2018-09-04T00:45:02.443Z,20.23
2018-09-04T00:47:30.563Z,20.18
2018-09-04T00:49:58.663Z,20.15
2018-09-04T00:52:26.753Z,20.12
2018-09-04T00:54:54.832Z,20.09
2018-09-04T00:57:22.923Z,20.07
2018-09-04T00:59:50.999Z,20.03
2018-09-04T01:02:19.083Z,19.99
2018-09-04T01:04:48.081Z,19.95
2018-09-04T01:07:16.555Z,19.91
2018-09-04T01:09:44.631Z,19.89
2018-09-04T01:12:12.680Z,19.83
2018-09-04T01:14:40.752Z,19.81
2018-09-04T01:17:08.835Z,19.78
2018-09-04T01:19:36.895Z,19.75
2018-09-04T01:22:05.168Z,19.72
2018-09-04T01:24:33.247Z,19.70
2018-09-04T01:27:01.315Z,19.68
2018-09-04T01:29:29.445Z,19.65
2018-09-04T01:31:57.521Z,19.62
2018-09-04T01:34:25.619Z,19.60
2018-09-04T01:36:53.785Z,19.57
2018-09-04T01:39:21.865Z,19.54
2018-09-04T01:41:49.928Z,19.52
2018-09-04T01:44:17.980Z,19.47
2018-09-04T01:46:46.051Z,19.44
2018-09-04T01:49:14.148Z,19.42
2018-09-04T01:51:42.191Z,19.40
2018-09-04T01:54:10.270Z,19.33
2018-09-04T01:56:38.340Z,19.30
2018-09-04T01:59:06.408Z,19.29
2018-09-04T02:01:35.041Z,19.26
2018-09-04T02:04:03.101Z,19.21
2018-09-04T02:06:31.180Z,19.18
2018-09-04T02:08:59.241Z,19.16
2018-09-04T02:11:27.329Z,19.15
2018-09-04T02:13:55.430Z,19.13
2018-09-04T02:16:23.523Z,19.14
2018-09-04T02:18:51.631Z,19.12
2018-09-04T02:21:19.746Z,19.13
2018-09-04T02:23:48.086Z,19.13
2018-09-04T02:26:16.153Z,19.12
2018-09-04T02:28:44.276Z,19.11
2018-09-04T02:31:12.311Z,19.11
2018-09-04T02:33:40.432Z,19.11
2018-09-04T02:36:08.498Z,19.11
2018-09-04T02:38:36.590Z,19.11
2018-09-04T02:41:05.038Z,19.10
2018-09-04T02:43:33.246Z,19.08
2018-09-04T02:46:01.389Z,19.09
2018-09-04T02:48:29.427Z,19.08
2018-09-04T02:50:57.480Z,19.08
2018-09-04T02:53:25.519Z,19.07
2018-09-04T02:55:53.629Z,19.06
2018-09-04T02:58:21.720Z,19.04
2018-09-04T03:00:49.791Z,19.02
2018-09-04T03:03:17.834Z,19.02
2018-09-04T03:05:45.883Z,19.01
2018-09-04T03:08:13.931Z,19.01
2018-09-04T03:10:42.044Z,18.97
2018-09-04T03:13:10.102Z,18.92
2018-09-04T03:15:38.163Z,18.85
2018-09-04T03:18:06.216Z,18.83
2018-09-04T03:20:34.267Z,18.84
2018-09-04T03:23:02.354Z,18.85
2018-09-04T03:25:30.393Z,18.88
2018-09-04T03:27:58.497Z,18.91
2018-09-04T03:30:26.555Z,18.95
2018-09-04T03:32:54.587Z,18.96
2018-09-04T03:35:22.664Z,18.98
2018-09-04T03:37:50.734Z,19.00
2018-09-04T03:40:18.784Z,19.00
2018-09-04T03:42:46.880Z,18.97
2018-09-04T03:45:14.939Z,18.95
2018-09-04T03:47:43.013Z,18.95
2018-09-04T03:50:11.056Z,18.96
2018-09-04T03:52:39.110Z,18.95
2018-09-04T03:55:07.213Z,18.95
2018-09-04T03:57:35.273Z,18.96
2018-09-04T04:00:03.345Z,18.96
2018-09-04T04:02:31.387Z,18.96
2018-09-04T04:04:59.460Z,18.96
2018-09-04T04:07:27.531Z,18.94
2018-09-04T04:09:55.588Z,18.93
2018-09-04T04:12:23.619Z,18.93
2018-09-04T04:14:51.694Z,18.93
2018-09-04T04:17:19.740Z,18.91
2018-09-04T04:19:47.839Z,18.93
2018-09-04T04:22:15.912Z,18.94
2018-09-04T04:24:43.969Z,18.94
2018-09-04T04:27:12.048Z,18.93
2018-09-04T04:29:40.125Z,18.92
2018-09-04T04:32:08.192Z,18.91
2018-09-04T04:34:36.309Z,18.91
2018-09-04T04:37:04.406Z,18.89
2018-09-04T04:39:32.469Z,18.84
2018-09-04T04:42:00.535Z,18.79
2018-09-04T04:44:28.584Z,18.78
2018-09-04T04:46:56.643Z,18.78
2018-09-04T04:49:24.689Z,18.78
2018-09-04T04:51:52.766Z,18.80
2018-09-04T04:54:20.827Z,18.83
2018-09-04T04:56:48.917Z,18.85
2018-09-04T04:59:17.065Z,18.86
2018-09-04T05:01:45.112Z,18.90
2018-09-04T05:04:13.164Z,18.89
2018-09-04T05:06:41.235Z,18.87
2018-09-04T05:09:10.263Z,18.89
2018-09-04T05:11:39.762Z,18.95
2018-09-04T05:14:08.153Z,19.03
2018-09-04T05:16:36.219Z,19.14
2018-09-04T05:19:04.313Z,19.21
2018-09-04T05:21:32.464Z,19.27
2018-09-04T05:24:00.531Z,19.32
2018-09-04T05:26:28.643Z,19.41
2018-09-04T05:28:56.744Z,19.51
2018-09-04T05:31:24.876Z,19.55
2018-09-04T05:33:52.956Z,19.54
2018-09-04T05:36:21.072Z,19.47
2018-09-04T05:38:49.172Z,19.43
2018-09-04T05:41:17.324Z,19.44
2018-09-04T05:43:52.398Z,19.49
2018-09-04T05:46:27.022Z,19.58
2018-09-04T05:48:56.127Z,19.68
2018-09-04T05:51:24.201Z,19.71
2018-09-04T05:53:52.323Z,19.78
2018-09-04T05:56:20.464Z,19.86
2018-09-04T05:58:48.592Z,19.96
2018-09-04T06:01:17.441Z,20.08
2018-09-04T06:03:45.512Z,20.17
2018-09-04T06:06:13.575Z,20.22
2018-09-04T06:08:41.652Z,20.21
2018-09-04T06:11:09.721Z,20.29
2018-09-04T06:13:37.797Z,20.42
2018-09-04T06:16:05.954Z,20.57
2018-09-04T06:18:34.039Z,20.77
2018-09-04T06:21:02.102Z,20.98
2018-09-04T06:23:30.183Z,21.13
2018-09-04T06:25:58.264Z,21.24
2018-09-04T06:28:26.373Z,21.29
2018-09-04T06:30:54.452Z,21.35
2018-09-04T06:33:22.551Z,21.40
2018-09-04T06:35:50.618Z,21.43
2018-09-04T06:38:18.814Z,21.44
2018-09-04T06:40:46.894Z,21.45
2018-09-04T06:43:14.966Z,21.43
2018-09-04T06:45:43.075Z,21.42
2018-09-04T06:48:11.179Z,21.39
2018-09-04T06:50:39.250Z,21.42
2018-09-04T06:53:07.354Z,21.38
2018-09-04T06:55:35.473Z,21.35
2018-09-04T06:58:03.554Z,21.38
2018-09-04T07:00:31.607Z,21.53
2018-09-04T07:02:59.710Z,21.82
2018-09-04T07:05:27.768Z,22.04
2018-09-04T07:07:55.835Z,22.24
2018-09-04T07:10:23.900Z,22.41
2018-09-04T07:12:52.006Z,22.56
2018-09-04T07:15:20.062Z,22.73
2018-09-04T07:17:48.141Z,22.88
2018-09-04T07:20:16.476Z,23.16
2018-09-04T07:22:44.580Z,23.64
2018-09-04T07:25:12.641Z,24.22
2018-09-04T07:27:40.713Z,24.70
2018-09-04T07:30:08.813Z,25.05
2018-09-04T07:32:36.908Z,25.36
2018-09-04T07:35:04.989Z,25.53
2018-09-04T07:37:34.190Z,25.45
2018-09-04T07:40:02.898Z,26.08
2018-09-04T07:42:31.688Z,26.69
2018-09-04T07:45:02.101Z,26.71
2018-09-04T07:47:30.228Z,26.72
2018-09-04T07:49:58.357Z,27.01
2018-09-04T07:52:28.396Z,27.30
2018-09-04T07:54:59.414Z,27.74
2018-09-04T07:57:28.775Z,27.85
2018-09-04T07:59:58.416Z,27.59
2018-09-04T08:02:27.362Z,27.37
2018-09-04T08:04:56.426Z,27.31
2018-09-04T08:07:25.124Z,27.25
2018-09-04T08:09:53.962Z,26.95
2018-09-04T08:12:22.892Z,26.69
2018-09-04T08:14:53.860Z,26.57
2018-09-04T08:17:22.771Z,26.21
2018-09-04T08:19:51.494Z,26.37
2018-09-04T08:22:20.300Z,26.66
2018-09-04T08:24:51.400Z,26.87
2018-09-04T08:27:21.836Z,27.00
2018-09-04T08:29:50.609Z,27.06
2018-09-04T08:32:19.926Z,27.29
2018-09-04T08:34:49.323Z,27.54
2018-09-04T08:37:18.213Z,27.82
2018-09-04T08:39:46.986Z,28.03
2018-09-04T08:42:17.533Z,28.00
2018-09-04T08:44:46.129Z,28.28
2018-09-04T08:47:14.794Z,28.65
2018-09-04T08:49:42.831Z,28.77
2018-09-04T08:52:11.719Z,28.96
2018-09-04T08:54:42.131Z,29.12
2018-09-04T08:57:11.104Z,29.31
2018-09-04T08:59:40.181Z,29.40
2018-09-04T09:02:08.942Z,29.28
2018-09-04T09:04:37.450Z,29.43
2018-09-04T09:07:06.615Z,29.66
2018-09-04T09:09:35.680Z,29.89
2018-09-04T09:12:05.506Z,30.09
2018-09-04T09:14:34.848Z,29.90
2018-09-04T09:17:04.175Z,29.85
2018-09-04T09:19:33.129Z,29.64
2018-09-04T09:22:01.690Z,29.78
2018-09-04T09:24:30.502Z,29.69
2018-09-04T09:26:59.176Z,29.44
2018-09-04T09:29:30.364Z,29.01
2018-09-04T09:31:58.711Z,28.75
2018-09-04T09:34:27.998Z,28.08
2018-09-04T09:36:57.844Z,28.04
2018-09-04T09:39:26.932Z,27.98
2018-09-04T09:41:56.042Z,27.93
2018-09-04T09:44:24.624Z,27.93
2018-09-04T09:46:58.358Z,27.74
2018-09-04T09:49:27.100Z,27.74
2018-09-04T09:51:56.143Z,27.81
2018-09-04T09:54:26.006Z,27.79
2018-09-04T09:56:54.654Z,27.77
2018-09-04T09:59:22.834Z,27.71
2018-09-04T10:01:59.614Z,27.74
2018-09-04T10:04:28.339Z,27.67
2018-09-04T10:06:57.705Z,27.70
2018-09-04T10:09:26.795Z,27.65
2018-09-04T10:11:55.695Z,27.69
2018-09-04T10:14:28.059Z,27.75
2018-09-04T10:16:56.602Z,27.77
2018-09-04T10:19:27.142Z,27.67
2018-09-04T10:21:57.519Z,27.60
2018-09-04T10:27:08.061Z,27.43
2018-09-04T10:29:37.548Z,27.46
2018-09-04T10:32:08.569Z,27.46
2018-09-04T10:34:36.914Z,27.30
2018-09-04T10:37:06.055Z,27.32
2018-09-04T10:39:39.710Z,27.32
2018-09-04T10:42:08.402Z,27.22
2018-09-04T10:44:37.079Z,27.19
2018-09-04T10:47:05.800Z,27.12
2018-09-04T10:49:34.530Z,27.03
2018-09-04T10:52:02.636Z,26.95
2018-09-04T10:54:31.595Z,26.97
2018-09-04T10:56:59.681Z,27.06
2018-09-04T10:59:27.799Z,27.14
2018-09-04T11:01:55.880Z,27.09
2018-09-04T11:04:23.989Z,27.15
2018-09-04T11:06:52.175Z,27.13
2018-09-04T11:09:20.408Z,27.10
2018-09-04T11:11:48.477Z,27.18
2018-09-04T11:14:16.761Z,27.18
2018-09-04T11:16:44.869Z,27.13
2018-09-04T11:19:12.957Z,27.22
2018-09-04T11:21:41.148Z,27.11
2018-09-04T11:24:09.267Z,27.03
2018-09-04T11:26:37.454Z,27.02
2018-09-04T11:29:07.494Z,27.22
2018-09-04T11:31:35.772Z,27.36
2018-09-04T11:34:03.920Z,27.44
2018-09-04T11:36:32.093Z,27.43
2018-09-04T11:39:00.198Z,27.30
2018-09-04T11:41:28.320Z,27.37
2018-09-04T11:43:56.455Z,27.30
2018-09-04T11:46:24.621Z,27.50
2018-09-04T11:48:52.768Z,27.40
2018-09-04T11:51:21.025Z,27.42
2018-09-04T11:53:49.223Z,27.25
2018-09-04T11:56:20.541Z,27.34
2018-09-04T11:58:53.511Z,27.28
2018-09-04T12:01:25.967Z,27.18
2018-09-04T12:03:59.877Z,27.12
2018-09-04T12:06:30.087Z,27.37
2018-09-04T12:08:59.912Z,27.48
2018-09-04T12:11:28.103Z,27.68
2018-09-04T12:13:56.257Z,27.79
2018-09-04T12:16:24.649Z,27.85
2018-09-04T12:18:53.339Z,27.95
2018-09-04T12:21:23.332Z,28.03
2018-09-04T12:23:53.398Z,28.07
2018-09-04T12:26:22.541Z,28.18
2018-09-04T12:28:52.666Z,28.25
2018-09-04T12:31:20.781Z,27.83
2018-09-04T12:33:49.316Z,27.98
2018-09-04T12:36:19.631Z,28.04
2018-09-04T12:38:47.741Z,28.24
2018-09-04T12:41:19.875Z,28.22
2018-09-04T12:43:51.418Z,28.24
2018-09-04T12:46:19.975Z,28.42
2018-09-04T12:48:50.664Z,28.33
2018-09-04T12:51:19.734Z,28.27
2018-09-04T12:53:48.622Z,28.33
2018-09-04T12:56:16.979Z,28.49
2018-09-04T12:58:45.365Z,28.59
2018-09-04T13:01:13.448Z,28.15
2018-09-04T13:06:34.488Z,28.46
2018-09-04T13:09:04.801Z,28.46
2018-09-04T13:11:38.120Z,28.51
2018-09-04T13:14:07.529Z,28.52
2018-09-04T13:16:41.234Z,28.55
2018-09-04T13:19:13.305Z,28.71
2018-09-04T13:21:41.420Z,28.82
2018-09-04T13:24:09.507Z,28.93
2018-09-04T13:26:37.616Z,29.02
2018-09-04T13:29:06.006Z,28.81
2018-09-04T13:31:34.082Z,28.86
2018-09-04T13:34:02.267Z,28.99
2018-09-04T13:36:30.383Z,29.04
2018-09-04T13:38:58.478Z,28.97
2018-09-04T13:41:30.716Z,28.98
2018-09-04T13:43:58.792Z,28.78
2018-09-04T13:46:26.879Z,28.69
2018-09-04T13:48:55.068Z,28.60
2018-09-04T13:54:42.444Z,28.54
2018-09-04T13:57:11.896Z,28.68
2018-09-04T13:59:41.935Z,28.65
2018-09-04T14:02:10.673Z,28.70
2018-09-04T14:04:41.909Z,28.74
2018-09-04T14:07:10.009Z,28.77
2018-09-04T14:09:39.550Z,28.71
2018-09-04T14:12:13.699Z,28.84
2018-09-04T14:14:42.407Z,28.86
2018-09-04T14:17:16.377Z,28.86
2018-09-04T14:19:46.209Z,28.74
2018-09-04T14:22:14.728Z,28.77
2018-09-04T14:24:42.855Z,28.81
2018-09-04T14:27:10.963Z,28.84
2018-09-04T14:30:15.402Z,28.85
2018-09-04T14:32:13.825Z,28.88
2018-09-04T14:34:42.000Z,28.85
2018-09-04T14:37:10.204Z,28.91
2018-09-04T14:39:38.261Z,28.94
2018-09-04T14:42:06.426Z,28.96
2018-09-04T14:44:34.548Z,28.91
2018-09-04T14:47:02.769Z,28.85
2018-09-04T14:49:30.935Z,28.90
2018-09-04T14:51:59.039Z,28.86
2018-09-04T14:54:27.120Z,28.87
2018-09-04T14:56:55.300Z,28.94
2018-09-04T14:59:23.464Z,28.80
2018-09-04T15:01:51.625Z,28.78
2018-09-04T15:04:19.755Z,28.79
2018-09-04T15:06:47.864Z,28.81
2018-09-04T15:09:15.951Z,28.77
2018-09-04T15:11:44.089Z,28.69
2018-09-04T15:14:12.183Z,28.53
2018-09-04T15:16:40.349Z,28.61
2018-09-04T15:19:08.411Z,28.68
2018-09-04T15:21:36.516Z,28.70
2018-09-04T15:24:04.607Z,28.77
2018-09-04T15:26:32.727Z,28.73
2018-09-04T15:29:00.827Z,28.74
2018-09-04T15:31:28.957Z,28.77
2018-09-04T15:33:57.057Z,28.71
2018-09-04T15:36:25.241Z,28.60
2018-09-04T15:38:53.345Z,28.54
2018-09-04T15:41:21.425Z,28.55
2018-09-04T15:43:49.516Z,28.53
2018-09-04T15:46:17.587Z,28.54
2018-09-04T15:48:48.223Z,28.59
2018-09-04T15:51:16.334Z,28.55
2018-09-04T15:53:44.492Z,28.42
2018-09-04T15:56:12.551Z,28.46
2018-09-04T15:58:40.633Z,28.48
2018-09-04T16:01:08.706Z,28.47
2018-09-04T16:03:36.804Z,28.49
2018-09-04T16:06:04.914Z,28.39
2018-09-04T16:08:33.138Z,28.34
2018-09-04T16:11:01.248Z,28.31
2018-09-04T16:13:29.376Z,28.29
2018-09-04T16:15:57.442Z,28.24
2018-09-04T16:18:25.546Z,28.29
2018-09-04T16:20:53.829Z,28.22
2018-09-04T16:23:22.031Z,28.33
2018-09-04T16:25:50.213Z,28.12
2018-09-04T16:28:18.295Z,28.21
2018-09-04T16:30:46.434Z,28.16
2018-09-04T16:33:14.519Z,28.14
2018-09-04T16:35:42.651Z,28.13
2018-09-04T16:38:10.769Z,28.10
2018-09-04T16:40:38.828Z,28.16
2018-09-04T16:43:06.959Z,28.14
2018-09-04T16:45:35.092Z,28.10
2018-09-04T16:48:03.204Z,28.04
2018-09-04T16:50:31.297Z,28.01
2018-09-04T16:52:59.368Z,27.96
2018-09-04T16:55:27.500Z,27.91
2018-09-04T16:57:55.991Z,27.87
2018-09-04T17:00:24.088Z,27.82
2018-09-04T17:02:52.395Z,27.78
2018-09-04T17:05:20.732Z,27.71
2018-09-04T17:07:49.012Z,27.66
2018-09-04T17:10:17.168Z,27.60
2018-09-04T17:12:45.461Z,27.56
2018-09-04T17:15:13.547Z,27.52
2018-09-04T17:17:41.652Z,27.50
2018-09-04T17:20:09.758Z,27.44
2018-09-04T17:22:37.832Z,27.39
2018-09-04T17:25:06.335Z,27.35
2018-09-04T17:27:34.467Z,27.30
2018-09-04T17:30:03.407Z,27.20
2018-09-04T17:32:31.564Z,27.14
2018-09-04T17:34:59.714Z,27.06
2018-09-04T17:37:27.886Z,26.98
2018-09-04T17:39:56.820Z,26.91
2018-09-04T17:42:25.115Z,26.85
2018-09-04T17:44:53.293Z,26.74
2018-09-04T17:47:24.207Z,26.65
2018-09-04T17:49:53.316Z,26.59
2018-09-04T17:52:21.404Z,26.55
2018-09-04T17:54:49.490Z,26.46
2018-09-04T17:57:17.588Z,26.38
2018-09-04T17:59:45.748Z,26.28
2018-09-04T18:02:13.855Z,26.18
2018-09-04T18:04:41.955Z,26.12
2018-09-04T18:07:10.249Z,26.02
2018-09-04T18:09:38.761Z,25.94
2018-09-04T18:12:06.996Z,25.87
2018-09-04T18:14:35.024Z,25.79
2018-09-04T18:17:03.107Z,25.72
2018-09-04T18:19:31.243Z,25.65
2018-09-04T18:21:59.428Z,25.58
2018-09-04T18:24:27.677Z,25.50
2018-09-04T18:26:56.002Z,25.42
2018-09-04T18:29:24.087Z,25.35
2018-09-04T18:31:52.259Z,25.28
2018-09-04T18:34:20.601Z,25.19
2018-09-04T18:36:48.792Z,25.09
2018-09-04T18:39:16.943Z,25.03
2018-09-04T18:41:45.015Z,24.99
2018-09-04T18:44:13.212Z,24.94
2018-09-04T18:46:41.342Z,24.88
2018-09-04T18:49:09.530Z,24.82
2018-09-04T18:51:37.916Z,24.74
2018-09-04T18:54:06.256Z,24.67
2018-09-04T18:56:43.940Z,24.59
2018-09-04T18:59:20.144Z,24.51
2018-09-04T19:01:49.321Z,24.43
2018-09-04T19:04:17.592Z,24.32
2018-09-04T19:06:47.023Z,24.24
2018-09-04T19:09:15.727Z,24.17
2018-09-04T19:11:47.939Z,24.10
2018-09-04T19:14:16.904Z,24.04
2018-09-04T19:16:45.251Z,23.97
2018-09-04T19:19:13.544Z,23.92
2018-09-04T19:21:41.700Z,23.84
2018-09-04T19:24:09.899Z,23.77
2018-09-04T19:26:37.975Z,23.70
2018-09-04T19:29:06.383Z,23.67
2018-09-04T19:31:34.503Z,23.62
2018-09-04T19:34:02.992Z,23.59
2018-09-04T19:36:31.445Z,23.54
2018-09-04T19:39:00.304Z,23.51
2018-09-04T19:41:28.379Z,23.47
2018-09-04T19:43:56.451Z,23.42
2018-09-04T19:46:24.545Z,23.37
2018-09-04T19:48:52.644Z,23.33
2018-09-04T19:51:20.818Z,23.28
2018-09-04T19:53:49.128Z,23.25
2018-09-04T19:56:17.188Z,23.19
2018-09-04T19:58:45.269Z,23.15
2018-09-04T20:01:13.785Z,23.12
2018-09-04T20:03:41.966Z,23.06
2018-09-04T20:06:10.664Z,23.01
2018-09-04T20:08:38.787Z,22.96
2018-09-04T20:11:07.371Z,22.91
2018-09-04T20:13:35.514Z,22.87
2018-09-04T20:16:04.533Z,22.83
2018-09-04T20:18:32.685Z,22.76
2018-09-04T20:21:00.857Z,22.69
2018-09-04T20:23:28.941Z,22.62
2018-09-04T20:25:57.022Z,22.53
2018-09-04T20:28:25.106Z,22.46
2018-09-04T20:30:59.552Z,22.38
2018-09-04T20:33:27.685Z,22.29
2018-09-04T20:35:55.791Z,22.24
2018-09-04T20:38:23.871Z,22.18
2018-09-04T20:40:51.987Z,22.13
2018-09-04T20:43:20.088Z,22.06
2018-09-04T20:45:48.246Z,22.01
2018-09-04T20:48:16.343Z,21.95
2018-09-04T20:50:44.431Z,21.88
2018-09-04T20:53:14.386Z,21.80
2018-09-04T20:55:49.228Z,21.71
2018-09-04T20:58:28.644Z,21.66
2018-09-04T21:01:08.180Z,21.59
2018-09-04T21:03:47.671Z,21.51
2018-09-04T21:06:27.175Z,21.41
2018-09-04T21:09:02.423Z,21.35
2018-09-04T21:11:30.704Z,21.34
2018-09-04T21:13:59.385Z,21.32
2018-09-04T21:16:27.474Z,21.30
2018-09-04T21:18:55.594Z,21.27
2018-09-04T21:21:23.684Z,21.10
2018-09-04T21:23:51.811Z,21.19
2018-09-04T21:26:20.006Z,21.12
2018-09-04T21:28:48.413Z,21.09
2018-09-04T21:31:17.553Z,21.05
2018-09-04T21:33:45.620Z,21.00
2018-09-04T21:36:13.723Z,20.96
2018-09-04T21:38:41.840Z,20.90
2018-09-04T21:41:09.935Z,20.86
2018-09-04T21:43:38.006Z,20.82
2018-09-04T21:46:06.539Z,20.77
2018-09-04T21:48:34.631Z,20.73
2018-09-04T21:51:02.700Z,20.69
2018-09-04T21:53:30.823Z,20.62
2018-09-04T21:55:58.911Z,20.61
2018-09-04T21:58:26.982Z,20.57
2018-09-04T22:00:55.562Z,20.52
2018-09-04T22:03:25.013Z,20.43
2018-09-04T22:05:53.438Z,20.39
2018-09-04T22:08:22.027Z,20.35
2018-09-04T22:10:50.124Z,20.30
2018-09-04T22:13:18.285Z,20.25
2018-09-04T22:15:46.327Z,20.22
2018-09-04T22:18:14.430Z,20.20
2018-09-04T22:20:42.534Z,20.18
2018-09-04T22:23:10.637Z,20.15
2018-09-04T22:25:38.728Z,20.14
2018-09-04T22:28:06.821Z,20.10
2018-09-04T22:30:34.905Z,20.03
2018-09-04T22:33:02.965Z,19.97
2018-09-04T22:35:31.030Z,19.91
2018-09-04T22:38:00.279Z,19.85
2018-09-04T22:40:28.355Z,19.81
2018-09-04T22:42:56.400Z,19.76
2018-09-04T22:45:24.527Z,19.71
2018-09-04T22:47:52.636Z,19.65
2018-09-04T22:50:26.245Z,19.61
2018-09-04T22:52:54.336Z,19.57
2018-09-04T22:55:22.438Z,19.56
2018-09-04T22:57:50.500Z,19.51
2018-09-04T23:00:18.572Z,19.46
2018-09-04T23:02:46.620Z,19.41
2018-09-04T23:05:14.701Z,19.28
2018-09-04T23:07:42.785Z,19.22
2018-09-04T23:10:10.939Z,19.19
2018-09-04T23:12:39.010Z,19.21
2018-09-04T23:15:07.305Z,19.20
2018-09-04T23:17:35.367Z,19.18
2018-09-04T23:20:03.455Z,19.13
2018-09-04T23:22:31.558Z,19.10
2018-09-04T23:24:59.727Z,19.07
2018-09-04T23:27:27.828Z,19.05
2018-09-04T23:29:55.912Z,19.06
2018-09-04T23:32:24.075Z,19.04
2018-09-04T23:34:52.215Z,19.01
2018-09-04T23:37:20.332Z,18.99
2018-09-04T23:39:49.040Z,18.96
2018-09-04T23:42:17.090Z,18.94
2018-09-04T23:44:45.124Z,18.92
2018-09-04T23:47:13.206Z,18.90
2018-09-04T23:49:41.274Z,18.87
2018-09-04T23:52:09.336Z,18.83
2018-09-04T23:54:37.419Z,18.77
2018-09-04T23:57:05.740Z,18.77
2018-09-04T23:59:33.806Z,18.72
